createdAt,value
2018-08-16T00:19:07.156Z,99.90
2018-08-16T00:21:35.696Z,99.90
2018-08-16T00:24:04.205Z,99.90
2018-08-16T00:26:32.673Z,99.90
2018-08-16T00:29:01.300Z,99.90
2018-08-16T00:48:52.283Z,99.90
2018-08-16T00:51:21.363Z,99.90
2018-08-16T00:53:49.862Z,99.90
2018-08-16T00:56:19.126Z,99.90
2018-08-16T00:58:47.513Z,99.90
2018-08-16T01:18:37.771Z,99.90
2018-08-16T01:21:06.328Z,99.90
2018-08-16T01:23:34.763Z,99.90
2018-08-16T01:43:24.451Z,99.90
2018-08-16T01:45:52.915Z,99.90
2018-08-16T01:48:21.961Z,99.90
2018-08-16T01:50:50.546Z,99.90
2018-08-16T03:22:13.637Z,99.90
2018-08-16T03:24:43.081Z,99.90
2018-08-16T03:27:12.413Z,99.90
2018-08-16T03:29:42.056Z,99.90
2018-08-16T03:32:10.785Z,99.90
2018-08-16T03:34:39.359Z,99.90
2018-08-16T03:37:08.628Z,99.90
2018-08-16T03:39:37.170Z,99.90
2018-08-16T03:42:06.347Z,99.90
2018-08-16T03:44:35.044Z,99.90
2018-08-16T03:47:03.541Z,99.90
2018-08-16T04:06:54.181Z,99.90
2018-08-16T04:09:22.881Z,99.90
2018-08-16T04:11:52.125Z,99.90
2018-08-16T04:14:20.608Z,99.90
2018-08-16T04:16:49.121Z,99.90
2018-08-16T04:19:17.678Z,99.90
2018-08-16T04:21:46.411Z,99.90
2018-08-16T04:24:15.498Z,99.90
2018-08-16T04:26:44.089Z,99.90
2018-08-16T04:29:12.641Z,99.90
2018-08-16T04:31:41.167Z,99.90
2018-08-16T04:34:10.925Z,99.90
2018-08-16T04:36:39.399Z,99.90
2018-08-16T04:39:08.785Z,99.90
2018-08-16T04:41:38.319Z,99.90
2018-08-16T04:44:07.551Z,99.90
2018-08-16T04:46:36.089Z,99.90
2018-08-16T04:49:04.549Z,99.90
2018-08-16T04:51:33.289Z,99.90
2018-08-16T04:54:02.950Z,99.90
2018-08-16T04:56:31.469Z,99.90
2018-08-16T04:59:01.372Z,99.90
2018-08-16T05:01:29.795Z,99.90
2018-08-16T05:03:58.354Z,99.90
2018-08-16T05:23:46.976Z,99.90
2018-08-16T05:26:15.370Z,99.90
2018-08-16T05:46:06.310Z,99.90
2018-08-16T05:48:34.761Z,99.90
2018-08-16T05:51:03.266Z,99.90
2018-08-16T05:53:32.030Z,99.90
2018-08-16T06:13:24.266Z,99.90
2018-08-16T06:15:52.739Z,99.90
2018-08-16T06:18:21.390Z,99.90
2018-08-16T06:20:49.908Z,99.90
2018-08-16T06:40:41.293Z,99.90
2018-08-16T06:43:10.450Z,99.90
2018-08-16T06:45:39.045Z,99.90
2018-08-16T06:48:07.785Z,99.90
2018-08-16T06:50:36.880Z,99.90
2018-08-16T06:53:05.390Z,99.90
2018-08-16T06:55:34.024Z,99.90
2018-08-16T06:58:02.616Z,99.90
2018-08-16T07:00:31.199Z,99.90
2018-08-16T07:02:59.900Z,99.90
2018-08-16T07:05:28.303Z,99.90
2018-08-16T07:07:57.496Z,99.90
2018-08-16T07:10:26.214Z,99.90
2018-08-16T07:12:54.762Z,99.90
2018-08-16T07:15:24.029Z,99.90
2018-08-16T07:17:52.570Z,99.90
2018-08-16T07:20:21.379Z,99.90
2018-08-16T07:22:49.753Z,99.90
2018-08-16T07:25:18.327Z,99.90
2018-08-16T07:27:46.801Z,99.90
2018-08-16T07:30:15.348Z,99.90
2018-08-16T07:50:06.698Z,99.90
2018-08-16T07:52:35.434Z,99.90
2018-08-16T07:55:04.312Z,99.90
2018-08-16T07:57:33.762Z,99.90
2018-08-16T08:00:02.559Z,99.90
2018-08-16T08:02:31.110Z,99.90
2018-08-16T08:04:59.818Z,99.90
2018-08-16T08:07:29.151Z,99.90
2018-08-16T08:09:57.779Z,99.90
2018-08-16T08:12:27.091Z,99.90
2018-08-16T08:14:56.354Z,99.90
2018-08-16T08:17:24.826Z,99.90
2018-08-16T08:19:54.115Z,99.90
2018-08-16T08:22:22.721Z,99.90
2018-08-16T08:24:51.386Z,99.90
2018-08-16T08:27:20.056Z,99.90
2018-08-16T08:29:48.540Z,99.90
2018-08-16T08:32:17.702Z,99.90
2018-08-16T08:34:48.086Z,99.90
2018-08-16T08:37:28.078Z,99.90
2018-08-16T08:39:56.599Z,99.90
2018-08-16T08:59:47.198Z,99.90
2018-08-16T09:02:15.968Z,99.90
2018-08-16T09:04:44.484Z,99.90
2018-08-16T09:07:14.771Z,99.90
2018-08-16T09:10:59.522Z,99.90
2018-08-16T09:13:39.572Z,99.90
2018-08-16T09:16:13.232Z,99.90
2018-08-16T09:18:42.498Z,99.90
2018-08-16T09:21:11.901Z,99.90
2018-08-16T09:23:40.630Z,99.90
2018-08-16T09:26:14.447Z,99.90
2018-08-16T09:28:43.625Z,99.90
2018-08-16T09:31:24.200Z,99.10
2018-08-16T09:34:10.709Z,99.10
2018-08-16T09:36:39.358Z,99.20
2018-08-16T09:39:08.862Z,97.20
2018-08-16T09:41:37.481Z,99.20
2018-08-16T09:44:06.756Z,97.50
2018-08-16T09:47:12.930Z,97.80
2018-08-16T09:49:46.405Z,98.10
2018-08-16T09:52:15.650Z,96.50
2018-08-16T09:54:44.174Z,97.00
2018-08-16T09:57:13.801Z,96.10
2018-08-16T10:17:04.762Z,91.50
2018-08-16T10:19:33.356Z,88.10
2018-08-16T10:39:23.076Z,74.80
2018-08-16T10:41:52.363Z,77.70
2018-08-16T10:44:21.092Z,76.60
2018-08-16T10:46:49.830Z,77.20
2018-08-16T10:49:18.337Z,76.80
2018-08-16T10:51:46.853Z,77.20
2018-08-16T10:54:15.389Z,78.50
2018-08-16T10:56:44.014Z,76.90
2018-08-16T10:59:12.502Z,77.10
2018-08-16T11:19:02.450Z,71.00
2018-08-16T11:38:52.802Z,63.30
2018-08-16T11:41:22.082Z,60.10
2018-08-16T11:43:50.611Z,62.80
2018-08-16T11:46:19.182Z,60.50
2018-08-16T12:06:09.197Z,60.60
2018-08-16T12:08:38.230Z,58.10
2018-08-16T12:11:07.226Z,57.00
2018-08-16T12:13:36.369Z,59.00
2018-08-16T12:16:05.115Z,58.90
2018-08-16T12:18:33.587Z,58.60
2018-08-16T12:21:03.150Z,58.40
2018-08-16T12:23:32.386Z,58.90
2018-08-16T12:26:02.120Z,59.90
2018-08-16T12:28:30.660Z,61.60
2018-08-16T12:30:59.137Z,61.80
2018-08-16T12:33:27.665Z,60.90
2018-08-16T12:35:56.219Z,60.50
2018-08-16T12:38:24.835Z,57.20
2018-08-16T12:40:53.435Z,59.50
2018-08-16T12:43:21.986Z,59.80
2018-08-16T12:45:50.732Z,58.70
2018-08-16T12:48:19.266Z,59.40
2018-08-16T12:50:47.785Z,60.20
2018-08-16T12:53:16.388Z,60.20
2018-08-16T13:13:06.759Z,56.90
2018-08-16T13:15:35.581Z,56.50
2018-08-16T13:18:04.184Z,56.10
2018-08-16T13:20:33.255Z,54.40
2018-08-16T13:23:02.062Z,56.00
2018-08-16T13:25:30.531Z,56.70
2018-08-16T13:27:59.077Z,56.90
2018-08-16T13:30:27.616Z,55.80
2018-08-16T13:32:56.838Z,55.80
2018-08-16T13:35:25.366Z,54.30
2018-08-16T13:55:14.765Z,48.10
2018-08-16T13:57:43.864Z,47.60
2018-08-16T14:17:33.267Z,41.90
2018-08-16T14:37:25.366Z,38.30
2018-08-16T14:39:54.108Z,38.00
2018-08-16T14:42:24.952Z,37.80
2018-08-16T15:02:14.580Z,33.40
2018-08-16T15:22:04.761Z,32.60
2018-08-16T15:41:54.246Z,33.00
2018-08-16T15:44:23.349Z,32.90
2018-08-16T15:46:52.597Z,31.10
2018-08-16T15:49:21.303Z,32.70
2018-08-16T15:51:50.496Z,34.50
2018-08-16T16:11:40.330Z,37.00
2018-08-16T16:14:08.896Z,37.40
2018-08-16T16:16:37.674Z,38.20
2018-08-16T16:19:06.356Z,39.70
2018-08-16T16:21:35.437Z,39.80
2018-08-16T16:24:04.034Z,39.50
2018-08-16T16:26:32.814Z,42.70
2018-08-16T16:29:01.268Z,43.40
2018-08-16T16:31:29.710Z,43.80
2018-08-16T16:33:59.778Z,44.50
2018-08-16T16:36:28.209Z,44.30
2018-08-16T16:38:57.649Z,44.90
2018-08-16T16:41:26.198Z,44.80
2018-08-16T16:43:55.559Z,46.80
2018-08-16T17:03:45.767Z,49.30
2018-08-16T17:06:14.938Z,50.10
2018-08-16T17:08:43.509Z,50.30
2018-08-16T17:11:12.089Z,49.50
2018-08-16T17:13:40.782Z,46.30
2018-08-16T17:16:09.322Z,48.90
2018-08-16T17:18:39.031Z,47.20
2018-08-16T17:21:07.522Z,50.70
2018-08-16T17:23:36.806Z,50.80
2018-08-16T17:26:05.707Z,53.20
2018-08-16T17:45:55.888Z,52.80
2018-08-16T17:48:25.079Z,53.20
2018-08-16T17:50:53.581Z,53.90
2018-08-16T17:53:22.762Z,56.30
2018-08-16T17:55:51.366Z,56.60
2018-08-16T17:58:20.607Z,58.50
2018-08-16T18:00:49.156Z,59.20
2018-08-16T18:03:18.034Z,60.10
2018-08-16T18:05:46.881Z,62.10
2018-08-16T18:08:16.258Z,62.80
2018-08-16T18:10:44.927Z,65.00
2018-08-16T18:13:13.479Z,66.00
2018-08-16T18:15:41.942Z,67.10
2018-08-16T18:18:11.303Z,68.00
2018-08-16T18:20:40.510Z,68.80
2018-08-16T18:23:10.251Z,70.60
2018-08-16T18:25:38.813Z,70.30
2018-08-16T18:28:07.390Z,69.00
2018-08-16T18:30:36.804Z,70.60
2018-08-16T18:33:05.567Z,70.50
2018-08-16T18:35:34.865Z,71.40
2018-08-16T18:38:03.297Z,70.70
2018-08-16T18:40:32.067Z,70.90
2018-08-16T18:43:00.546Z,71.80
2018-08-16T18:45:29.692Z,72.20
2018-08-16T18:47:58.189Z,70.10
2018-08-16T18:50:26.701Z,71.90
2018-08-16T18:52:55.856Z,68.50
2018-08-16T18:55:24.388Z,67.80
2018-08-16T18:57:53.002Z,67.70
2018-08-16T19:17:43.326Z,69.30
2018-08-16T19:20:11.894Z,69.50
2018-08-16T19:22:40.413Z,68.50
2018-08-16T19:25:09.077Z,69.50
2018-08-16T19:44:59.470Z,72.70
2018-08-16T19:47:28.101Z,72.70
2018-08-16T20:07:18.003Z,74.20
2018-08-16T20:09:47.407Z,75.00
2018-08-16T20:12:15.921Z,75.10
2018-08-16T20:14:45.359Z,75.50
2018-08-16T20:17:13.921Z,76.30
2018-08-16T20:19:43.255Z,76.60
2018-08-16T20:22:18.099Z,76.40
2018-08-16T20:42:08.259Z,81.70
2018-08-16T20:44:36.784Z,83.10
2018-08-16T20:47:05.325Z,81.90
2018-08-16T20:49:33.821Z,82.30
2018-08-16T20:52:03.158Z,82.40
2018-08-16T20:54:31.585Z,83.50
2018-08-16T21:14:20.638Z,88.00
2018-08-16T21:16:49.144Z,86.50
2018-08-16T21:19:17.646Z,85.40
2018-08-16T21:21:46.164Z,86.30
2018-08-16T21:24:14.618Z,87.30
2018-08-16T21:26:43.141Z,89.60
2018-08-16T21:29:11.625Z,90.00
2018-08-16T21:31:40.059Z,90.50
2018-08-16T21:34:08.514Z,91.20
2018-08-16T21:36:37.383Z,91.50
2018-08-16T21:39:08.371Z,92.30
2018-08-16T21:41:36.862Z,92.40
2018-08-16T21:44:05.391Z,92.70
2018-08-16T21:46:33.938Z,92.90
2018-08-16T21:49:02.433Z,93.30
2018-08-16T21:51:30.984Z,93.80
2018-08-16T21:53:59.526Z,94.10
2018-08-16T21:56:29.433Z,95.00
2018-08-16T21:58:58.947Z,95.40
2018-08-16T22:01:27.458Z,95.90
2018-08-16T22:03:55.918Z,96.10
2018-08-16T22:06:35.878Z,97.30
2018-08-16T22:09:06.170Z,97.60
2018-08-16T22:11:34.705Z,97.70
2018-08-16T22:14:05.789Z,97.50
2018-08-16T22:16:35.064Z,98.70
2018-08-16T22:19:04.165Z,99.70
2018-08-16T22:21:32.713Z,99.90
2018-08-16T22:24:01.215Z,99.90
2018-08-16T22:26:29.694Z,99.90
2018-08-16T22:28:58.287Z,99.90
2018-08-16T22:31:26.834Z,99.30
2018-08-16T22:33:55.305Z,99.90
2018-08-16T22:36:23.794Z,99.90
2018-08-16T22:38:54.561Z,99.90
2018-08-16T22:58:44.681Z,99.90
2018-08-16T23:01:13.326Z,99.90
2018-08-16T23:03:41.863Z,99.90
2018-08-16T23:06:11.825Z,99.90
2018-08-16T23:08:40.494Z,99.90
2018-08-16T23:11:09.046Z,99.90
2018-08-16T23:13:37.624Z,99.90
2018-08-16T23:16:06.242Z,99.90
2018-08-16T23:18:35.590Z,99.90
2018-08-16T23:38:25.955Z,99.90
2018-08-16T23:40:55.813Z,99.90
2018-08-16T23:43:25.727Z,99.90
2018-08-16T23:45:54.915Z,99.90
2018-08-16T23:48:30.074Z,99.90
2018-08-16T23:50:59.262Z,99.90
2018-08-16T23:53:28.402Z,99.90
2018-08-16T23:55:57.149Z,99.90
2018-08-16T23:58:25.588Z,99.90
